createdAt,value
2019-02-16T00:00:29.494Z,70.73
2019-02-16T00:02:58.136Z,70.69
2019-02-16T00:05:26.617Z,70.26
2019-02-16T00:07:55.136Z,70.32
2019-02-16T00:10:23.765Z,71.19
2019-02-16T00:12:52.177Z,70.24
2019-02-16T00:15:20.735Z,70.54
2019-02-16T00:17:49.223Z,70.48
2019-02-16T00:20:17.948Z,71.20
2019-02-16T00:22:46.363Z,71.14
2019-02-16T00:25:14.788Z,70.71
2019-02-16T00:27:43.399Z,70.02
2019-02-16T00:30:11.974Z,70.33
2019-02-16T00:32:40.708Z,70.17
2019-02-16T00:35:09.186Z,70.12
2019-02-16T00:37:37.816Z,70.47
2019-02-16T00:40:08.183Z,70.03
2019-02-16T00:42:36.593Z,70.55
2019-02-16T00:45:06.556Z,71.03
2019-02-16T00:47:35.195Z,69.88
2019-02-16T00:50:03.737Z,69.48
2019-02-16T00:52:32.224Z,69.25
2019-02-16T00:55:00.871Z,69.33
2019-02-16T00:57:29.497Z,69.31
2019-02-16T00:59:57.987Z,70.00
2019-02-16T01:02:26.552Z,70.49
2019-02-16T01:04:55.031Z,71.07
2019-02-16T01:07:23.586Z,72.13
2019-02-16T01:09:52.143Z,72.87
2019-02-16T01:12:20.763Z,73.25
2019-02-16T01:14:49.326Z,73.33
2019-02-16T01:17:17.814Z,73.47
2019-02-16T01:19:46.365Z,73.26
2019-02-16T01:22:14.872Z,73.42
2019-02-16T01:24:43.435Z,73.11
2019-02-16T01:27:12.075Z,73.40
2019-02-16T01:29:40.633Z,72.88
2019-02-16T01:32:09.202Z,72.80
2019-02-16T01:35:00.408Z,73.26
2019-02-16T01:37:29.102Z,73.42
2019-02-16T01:39:57.662Z,74.69
2019-02-16T01:42:26.139Z,74.53
2019-02-16T01:44:54.558Z,74.14
2019-02-16T01:47:23.130Z,73.92
2019-02-16T01:49:51.635Z,74.48
2019-02-16T01:52:20.190Z,74.26
2019-02-16T01:54:48.621Z,73.77
2019-02-16T01:57:17.034Z,73.48
2019-02-16T01:59:45.535Z,73.71
2019-02-16T02:02:14.013Z,73.98
2019-02-16T02:04:42.597Z,73.59
2019-02-16T02:07:11.076Z,73.95
2019-02-16T02:09:39.503Z,73.69
2019-02-16T02:12:08.574Z,73.78
2019-02-16T02:14:37.067Z,73.24
2019-02-16T02:17:05.496Z,73.26
2019-02-16T02:19:33.967Z,73.70
2019-02-16T02:22:02.381Z,73.79
2019-02-16T02:24:30.942Z,72.65
2019-02-16T02:26:59.513Z,72.66
2019-02-16T02:29:28.008Z,73.26
2019-02-16T02:31:56.497Z,73.81
2019-02-16T02:34:24.926Z,73.82
2019-02-16T02:36:53.565Z,73.78
2019-02-16T02:39:22.144Z,73.48
2019-02-16T02:41:50.689Z,72.10
2019-02-16T02:44:19.168Z,72.90
2019-02-16T02:46:47.663Z,73.33
2019-02-16T02:49:16.078Z,73.04
2019-02-16T02:51:51.734Z,74.10
2019-02-16T02:54:14.849Z,73.58
2019-02-16T02:56:43.326Z,73.48
2019-02-16T02:59:11.742Z,73.61
2019-02-16T03:01:40.294Z,73.97
2019-02-16T03:04:08.787Z,74.40
2019-02-16T03:06:37.280Z,74.46
2019-02-16T03:09:05.749Z,74.86
2019-02-16T03:11:34.180Z,74.70
2019-02-16T03:14:02.749Z,74.74
2019-02-16T03:16:31.303Z,74.54
2019-02-16T03:18:59.800Z,74.30
2019-02-16T03:21:28.247Z,74.48
2019-02-16T03:23:56.730Z,74.94
2019-02-16T03:26:43.305Z,75.09
2019-02-16T03:29:17.742Z,74.56
2019-02-16T03:32:20.892Z,74.46
2019-02-16T03:34:58.159Z,74.59
2019-02-16T03:37:45.781Z,74.75
2019-02-16T03:40:14.191Z,74.95
2019-02-16T03:42:42.624Z,75.37
2019-02-16T03:45:11.055Z,74.95
2019-02-16T03:47:39.473Z,74.92
2019-02-16T03:50:08.842Z,74.60
2019-02-16T03:52:37.242Z,74.95
2019-02-16T03:55:06.113Z,75.57
2019-02-16T03:57:34.669Z,74.36
2019-02-16T04:00:03.437Z,74.14
2019-02-16T04:02:31.848Z,73.91
2019-02-16T04:05:00.402Z,73.52
2019-02-16T04:07:28.892Z,74.28
2019-02-16T04:09:57.367Z,73.94
2019-02-16T04:12:25.927Z,74.24
2019-02-16T04:14:54.366Z,74.39
2019-02-16T04:17:22.832Z,74.60
2019-02-16T04:19:51.247Z,74.62
2019-02-16T04:22:24.575Z,74.50
2019-02-16T04:24:49.799Z,74.88
2019-02-16T04:27:18.572Z,75.26
2019-02-16T04:29:47.127Z,75.19
2019-02-16T04:32:15.527Z,74.62
2019-02-16T04:34:44.010Z,75.00
2019-02-16T04:37:12.577Z,74.62
2019-02-16T04:39:41.082Z,75.14
2019-02-16T04:42:09.697Z,75.06
2019-02-16T04:44:38.182Z,74.81
2019-02-16T04:47:06.727Z,75.32
2019-02-16T04:49:35.360Z,75.32
2019-02-16T04:52:04.096Z,75.26
2019-02-16T04:54:32.711Z,75.80
2019-02-16T04:57:01.272Z,75.52
2019-02-16T04:59:29.742Z,75.52
2019-02-16T05:01:58.206Z,75.76
2019-02-16T05:04:26.835Z,75.96
2019-02-16T05:06:55.388Z,75.96
2019-02-16T05:09:24.006Z,76.06
2019-02-16T05:11:52.508Z,76.30
2019-02-16T05:14:21.136Z,75.95
2019-02-16T05:16:49.559Z,75.90
2019-02-16T05:19:18.020Z,76.14
2019-02-16T05:21:46.588Z,75.64
2019-02-16T05:24:15.141Z,75.83
2019-02-16T05:26:43.701Z,75.97
2019-02-16T05:29:12.331Z,76.53
2019-02-16T05:31:40.892Z,76.03
2019-02-16T05:34:09.449Z,76.10
2019-02-16T05:36:37.989Z,76.10
2019-02-16T05:39:06.633Z,76.33
2019-02-16T05:41:35.263Z,75.35
2019-02-16T05:44:03.684Z,75.12
2019-02-16T05:46:32.087Z,75.09
2019-02-16T05:49:00.651Z,75.42
2019-02-16T05:51:29.273Z,76.59
2019-02-16T05:53:57.832Z,77.58
2019-02-16T05:56:26.224Z,77.75
2019-02-16T05:58:54.787Z,77.48
2019-02-16T06:01:23.273Z,76.44
2019-02-16T06:03:51.918Z,76.44
2019-02-16T06:06:20.453Z,76.35
2019-02-16T06:08:48.941Z,75.11
2019-02-16T06:11:17.417Z,73.99
2019-02-16T06:13:45.908Z,73.81
2019-02-16T06:16:14.539Z,73.91
2019-02-16T06:18:43.104Z,73.91
2019-02-16T06:21:11.724Z,73.54
2019-02-16T06:23:40.339Z,73.10
2019-02-16T06:26:08.838Z,73.06
2019-02-16T06:28:37.467Z,72.43
2019-02-16T06:31:05.948Z,71.70
2019-02-16T06:33:34.519Z,71.70
2019-02-16T06:36:04.735Z,71.23
2019-02-16T06:38:33.300Z,70.57
2019-02-16T06:41:01.794Z,70.27
2019-02-16T06:43:30.404Z,71.19
2019-02-16T06:46:00.793Z,70.03
2019-02-16T06:48:29.228Z,69.46
2019-02-16T06:50:57.717Z,68.63
2019-02-16T06:53:26.271Z,68.58
2019-02-16T06:55:56.414Z,68.17
2019-02-16T06:58:24.903Z,67.03
2019-02-16T07:00:53.538Z,66.63
2019-02-16T07:03:22.001Z,65.33
2019-02-16T07:05:50.517Z,65.80
2019-02-16T07:08:19.010Z,64.56
2019-02-16T07:10:47.495Z,65.16
2019-02-16T07:13:15.989Z,64.40
2019-02-16T07:15:46.185Z,64.69
2019-02-16T07:18:16.326Z,63.54
2019-02-16T07:20:44.814Z,62.89
2019-02-16T07:23:21.965Z,62.39
2019-02-16T07:25:43.553Z,61.76
2019-02-16T07:28:12.043Z,61.04
2019-02-16T07:30:40.534Z,60.27
2019-02-16T07:33:09.171Z,60.17
2019-02-16T07:35:38.182Z,58.48
2019-02-16T07:38:06.827Z,58.68
2019-02-16T07:40:35.596Z,58.40
2019-02-16T07:43:04.145Z,57.88
2019-02-16T07:45:34.273Z,56.59
2019-02-16T07:48:04.478Z,57.20
2019-02-16T07:50:37.707Z,56.11
2019-02-16T07:53:13.817Z,56.04
2019-02-16T07:55:43.909Z,55.97
2019-02-16T07:58:17.400Z,54.45
2019-02-16T08:00:47.611Z,54.17
2019-02-16T08:03:26.532Z,55.42
2019-02-16T08:05:57.336Z,54.48
2019-02-16T08:08:28.077Z,54.54
2019-02-16T08:11:15.221Z,54.16
2019-02-16T08:13:51.833Z,53.38
2019-02-16T08:16:28.053Z,54.24
2019-02-16T08:19:04.878Z,53.32
2019-02-16T08:21:41.741Z,54.17
2019-02-16T08:24:18.213Z,53.07
2019-02-16T08:26:49.010Z,52.15
2019-02-16T08:29:35.939Z,51.78
2019-02-16T08:32:22.942Z,52.03
2019-02-16T08:34:53.688Z,51.65
2019-02-16T08:37:24.417Z,52.84
2019-02-16T08:39:58.182Z,52.47
2019-02-16T08:42:31.873Z,51.48
2019-02-16T08:45:05.457Z,51.31
2019-02-16T08:47:38.944Z,50.56
2019-02-16T08:50:15.387Z,50.20
2019-02-16T08:52:48.531Z,51.27
2019-02-16T08:55:31.013Z,49.91
2019-02-16T08:58:18.009Z,49.29
2019-02-16T09:00:48.796Z,50.48
2019-02-16T09:03:25.667Z,49.96
2019-02-16T09:05:59.059Z,49.85
2019-02-16T09:08:29.784Z,48.81
2019-02-16T09:11:15.703Z,47.10
2019-02-16T09:13:51.836Z,45.43
2019-02-16T09:16:25.157Z,45.42
2019-02-16T09:19:01.839Z,44.06
2019-02-16T09:21:35.578Z,44.16
2019-02-16T09:24:15.183Z,43.08
2019-02-16T09:26:48.901Z,43.09
2019-02-16T09:29:19.691Z,42.73
2019-02-16T09:32:06.072Z,41.18
2019-02-16T09:34:36.793Z,40.29
2019-02-16T09:37:07.504Z,40.69
2019-02-16T09:39:50.097Z,39.37
2019-02-16T09:42:26.539Z,37.04
2019-02-16T09:44:57.253Z,38.49
2019-02-16T09:47:36.712Z,36.57
2019-02-16T09:50:10.952Z,38.36
2019-02-16T09:52:44.051Z,37.50
2019-02-16T09:55:14.853Z,38.12
2019-02-16T09:57:51.345Z,36.18
2019-02-16T10:00:30.922Z,36.07
2019-02-16T10:03:04.301Z,36.95
2019-02-16T10:05:40.740Z,37.67
2019-02-16T10:08:25.981Z,38.17
2019-02-16T10:11:13.017Z,38.68
2019-02-16T10:13:46.549Z,37.34
2019-02-16T10:16:20.259Z,37.89
2019-02-16T10:18:53.749Z,37.73
2019-02-16T10:21:24.453Z,36.76
2019-02-16T10:23:55.241Z,36.88
2019-02-16T10:26:28.803Z,35.97
2019-02-16T10:29:11.662Z,36.22
2019-02-16T10:31:42.370Z,34.69
2019-02-16T10:34:31.241Z,35.70
2019-02-16T10:37:04.316Z,34.11
2019-02-16T10:39:51.330Z,33.82
2019-02-16T10:42:24.442Z,35.65
2019-02-16T10:44:58.096Z,33.63
2019-02-16T10:47:28.750Z,33.67
2019-02-16T10:49:59.400Z,34.34
2019-02-16T10:52:38.881Z,33.66
2019-02-16T10:55:25.641Z,34.28
2019-02-16T10:57:56.433Z,33.54
2019-02-16T11:00:39.107Z,34.84
2019-02-16T11:03:09.921Z,33.26
2019-02-16T11:05:40.714Z,32.80
2019-02-16T11:08:14.036Z,33.16
2019-02-16T11:10:44.752Z,33.30
2019-02-16T11:13:21.298Z,33.26
2019-02-16T11:15:54.974Z,33.31
2019-02-16T11:18:43.739Z,33.79
2019-02-16T11:21:17.022Z,33.03
2019-02-16T11:23:47.749Z,33.06
2019-02-16T11:26:24.224Z,33.20
2019-02-16T11:28:55.855Z,33.31
2019-02-16T11:31:32.809Z,32.88
2019-02-16T11:34:09.692Z,31.96
2019-02-16T11:36:52.590Z,32.35
2019-02-16T11:39:39.620Z,33.28
2019-02-16T11:42:10.408Z,33.46
2019-02-16T11:44:47.136Z,33.53
2019-02-16T11:47:35.733Z,33.78
2019-02-16T11:50:08.147Z,33.12
2019-02-16T11:52:44.638Z,32.93
2019-02-16T11:55:20.488Z,33.42
2019-02-16T11:57:59.717Z,34.22
2019-02-16T12:00:36.475Z,34.22
2019-02-16T12:03:23.243Z,35.18
2019-02-16T12:06:02.673Z,34.34
2019-02-16T12:08:36.147Z,33.46
2019-02-16T12:11:12.315Z,33.09
2019-02-16T12:13:52.013Z,33.03
2019-02-16T12:16:25.820Z,34.19
2019-02-16T12:18:56.605Z,33.28
2019-02-16T12:21:44.975Z,35.45
2019-02-16T12:24:18.461Z,34.27
2019-02-16T12:27:05.388Z,33.34
2019-02-16T12:29:51.236Z,33.22
2019-02-16T12:32:30.858Z,32.70
2019-02-16T12:35:17.970Z,34.88
2019-02-16T12:37:48.791Z,32.68
2019-02-16T12:40:25.378Z,32.91
2019-02-16T12:42:56.181Z,32.69
2019-02-16T12:45:26.904Z,33.03
2019-02-16T12:48:03.450Z,32.03
2019-02-16T12:50:37.135Z,32.97
2019-02-16T12:53:20.006Z,33.58
2019-02-16T12:56:03.018Z,33.97
2019-02-16T12:58:42.265Z,33.67
2019-02-16T13:01:13.237Z,32.88
2019-02-16T13:03:44.035Z,33.58
2019-02-16T13:06:14.696Z,33.22
2019-02-16T13:08:51.145Z,32.98
2019-02-16T13:11:27.623Z,33.27
2019-02-16T13:14:10.503Z,32.08
2019-02-16T13:16:41.240Z,32.64
2019-02-16T13:19:20.772Z,32.82
2019-02-16T13:21:51.597Z,33.03
2019-02-16T13:24:31.045Z,32.36
2019-02-16T13:27:17.730Z,32.37
2019-02-16T13:30:06.584Z,31.18
2019-02-16T13:32:45.861Z,31.54
2019-02-16T13:35:28.478Z,31.09
2019-02-16T13:38:08.024Z,31.63
2019-02-16T13:40:52.238Z,31.39
2019-02-16T13:43:28.907Z,31.75
2019-02-16T13:46:11.528Z,31.92
2019-02-16T13:48:45.112Z,31.98
2019-02-16T13:51:15.868Z,30.84
2019-02-16T13:53:52.653Z,33.30
2019-02-16T13:56:23.321Z,32.88
2019-02-16T13:59:02.738Z,33.18
2019-02-16T14:01:33.456Z,33.13
2019-02-16T14:04:28.115Z,33.18
2019-02-16T14:07:14.876Z,32.80
2019-02-16T14:10:03.464Z,33.37
2019-02-16T14:12:49.100Z,32.96
2019-02-16T14:15:34.606Z,31.90
2019-02-16T14:18:03.687Z,33.09
2019-02-16T14:20:32.888Z,31.29
2019-02-16T14:23:02.117Z,31.64
2019-02-16T14:25:32.956Z,33.21
2019-02-16T14:28:02.038Z,32.92
2019-02-16T14:30:31.145Z,33.66
2019-02-16T14:33:00.288Z,34.23
2019-02-16T14:35:29.451Z,34.09
2019-02-16T14:38:05.901Z,34.89
2019-02-16T14:40:35.135Z,34.35
2019-02-16T14:43:04.226Z,33.48
2019-02-16T14:45:34.953Z,33.77
2019-02-16T14:48:04.055Z,34.19
2019-02-16T14:50:33.245Z,33.52
2019-02-16T14:53:02.398Z,33.86
2019-02-16T14:55:31.650Z,34.32
2019-02-16T14:58:00.944Z,34.32
2019-02-16T15:00:30.267Z,33.97
2019-02-16T15:02:59.575Z,33.83
2019-02-16T15:05:28.906Z,33.28
2019-02-16T15:07:58.884Z,33.98
2019-02-16T15:10:28.241Z,33.96
2019-02-16T15:12:57.886Z,34.24
2019-02-16T15:15:27.119Z,35.23
2019-02-16T15:17:56.288Z,35.47
2019-02-16T15:20:25.398Z,35.55
2019-02-16T15:22:54.501Z,36.35
2019-02-16T15:25:23.611Z,36.79
2019-02-16T15:27:52.788Z,37.74
2019-02-16T15:30:21.884Z,38.08
2019-02-16T15:32:51.119Z,37.97
2019-02-16T15:35:20.655Z,38.41
2019-02-16T15:37:49.799Z,38.24
2019-02-16T15:40:18.817Z,38.70
2019-02-16T15:42:47.875Z,39.69
2019-02-16T15:45:17.036Z,40.66
2019-02-16T15:47:46.186Z,42.55
2019-02-16T15:50:15.639Z,43.17
2019-02-16T15:52:44.879Z,44.23
2019-02-16T15:55:14.131Z,44.59
2019-02-16T15:57:43.389Z,45.28
2019-02-16T16:00:17.890Z,45.45
2019-02-16T16:02:47.142Z,45.72
2019-02-16T16:05:16.382Z,45.86
2019-02-16T16:07:47.254Z,46.00
2019-02-16T16:10:20.780Z,46.60
2019-02-16T16:13:00.401Z,46.94
2019-02-16T16:15:47.212Z,47.34
2019-02-16T16:18:18.033Z,47.47
2019-02-16T16:20:57.890Z,47.74
2019-02-16T16:23:39.816Z,48.09
2019-02-16T16:26:19.835Z,48.08
2019-02-16T16:29:00.361Z,48.07
2019-02-16T16:31:40.708Z,48.47
2019-02-16T16:34:13.948Z,48.82
2019-02-16T16:36:49.605Z,49.71
2019-02-16T16:39:19.813Z,50.06
2019-02-16T16:41:50.029Z,50.33
2019-02-16T16:44:25.968Z,50.45
2019-02-16T16:47:04.861Z,49.84
2019-02-16T16:49:40.826Z,50.27
2019-02-16T16:52:10.913Z,50.84
2019-02-16T16:54:43.795Z,51.61
2019-02-16T16:57:29.419Z,51.77
2019-02-16T16:59:59.658Z,51.12
2019-02-16T17:02:32.564Z,51.13
2019-02-16T17:05:17.708Z,51.25
2019-02-16T17:07:53.601Z,51.36
2019-02-16T17:10:23.810Z,53.20
2019-02-16T17:12:54.017Z,52.40
2019-02-16T17:15:33.119Z,53.26
2019-02-16T17:18:18.207Z,53.38
2019-02-16T17:20:48.374Z,53.62
2019-02-16T17:23:24.703Z,53.25
2019-02-16T17:25:54.840Z,53.49
2019-02-16T17:28:33.910Z,53.14
2019-02-16T17:31:16.752Z,53.38
2019-02-16T17:34:04.908Z,53.17
2019-02-16T17:36:35.048Z,55.74
2019-02-16T17:39:11.100Z,54.75
2019-02-16T17:41:47.033Z,55.36
2019-02-16T17:44:17.187Z,55.77
2019-02-16T17:46:50.237Z,56.80
2019-02-16T17:49:20.453Z,58.04
2019-02-16T17:51:56.650Z,58.09
2019-02-16T17:54:29.813Z,58.97
2019-02-16T17:57:02.516Z,59.89
2019-02-16T17:59:35.384Z,60.83
2019-02-16T18:02:05.596Z,61.06
2019-02-16T18:04:35.731Z,61.08
2019-02-16T18:07:21.678Z,61.71
2019-02-16T18:10:00.721Z,62.19
2019-02-16T18:12:36.686Z,63.20
2019-02-16T18:15:09.014Z,63.46
2019-02-16T18:17:42.191Z,63.68
2019-02-16T18:20:21.259Z,64.09
2019-02-16T18:23:00.315Z,63.65
2019-02-16T18:25:30.544Z,63.63
2019-02-16T18:28:03.667Z,64.05
2019-02-16T18:30:49.803Z,63.66
2019-02-16T18:33:35.947Z,63.97
2019-02-16T18:36:08.585Z,64.09
2019-02-16T18:38:41.495Z,64.13
2019-02-16T18:41:27.917Z,65.09
2019-02-16T18:43:59.851Z,64.36
2019-02-16T18:46:45.621Z,65.00
2019-02-16T18:49:15.824Z,65.08
2019-02-16T18:51:57.807Z,64.99
2019-02-16T18:54:28.024Z,65.05
2019-02-16T18:57:07.330Z,65.93
2019-02-16T18:59:40.074Z,66.41
2019-02-16T19:02:22.214Z,66.47
2019-02-16T19:04:54.804Z,66.94
2019-02-16T19:07:39.971Z,67.70
2019-02-16T19:10:10.087Z,67.88
2019-02-16T19:12:43.045Z,68.16
2019-02-16T19:15:21.870Z,68.46
2019-02-16T19:17:52.041Z,68.71
2019-02-16T19:20:25.001Z,68.71
2019-02-16T19:23:00.958Z,68.66
2019-02-16T19:25:31.182Z,68.59
2019-02-16T19:28:07.427Z,69.07
2019-02-16T19:30:43.539Z,69.14
2019-02-16T19:33:14.515Z,69.00
2019-02-16T19:36:01.011Z,69.13
2019-02-16T19:38:34.200Z,68.90
2019-02-16T19:41:16.235Z,69.13
2019-02-16T19:43:52.344Z,69.06
2019-02-16T19:46:22.543Z,69.45
2019-02-16T19:49:08.787Z,69.35
2019-02-16T19:51:44.861Z,69.34
2019-02-16T19:54:18.059Z,69.36
2019-02-16T19:56:51.076Z,69.49
2019-02-16T19:59:24.340Z,69.81
2019-02-16T20:01:54.483Z,69.67
2019-02-16T20:04:30.526Z,69.89
2019-02-16T20:07:16.918Z,69.80
2019-02-16T20:09:47.158Z,69.65
2019-02-16T20:12:29.307Z,69.44
2019-02-16T20:15:02.701Z,70.11
2019-02-16T20:17:32.928Z,70.08
2019-02-16T20:20:21.015Z,70.31
2019-02-16T20:23:02.882Z,70.38
2019-02-16T20:25:42.037Z,70.41
2019-02-16T20:28:21.110Z,70.41
2019-02-16T20:30:51.298Z,70.53
2019-02-16T20:33:21.434Z,70.44
2019-02-16T20:36:00.728Z,70.74
2019-02-16T20:38:30.876Z,70.79
2019-02-16T20:41:01.080Z,71.64
2019-02-16T20:43:49.883Z,71.59
2019-02-16T20:46:26.124Z,71.59
2019-02-16T20:49:05.415Z,71.76
2019-02-16T20:51:38.218Z,71.74
2019-02-16T20:54:08.418Z,71.50
2019-02-16T20:56:38.627Z,71.42
2019-02-16T20:59:11.379Z,71.24
2019-02-16T21:01:41.580Z,71.02
2019-02-16T21:04:14.466Z,70.83
2019-02-16T21:07:02.524Z,71.33
2019-02-16T21:09:35.607Z,70.76
2019-02-16T21:12:05.829Z,71.27
2019-02-16T21:14:35.971Z,71.27
2019-02-16T21:17:22.148Z,71.62
2019-02-16T21:20:04.163Z,71.17
2019-02-16T21:22:34.338Z,71.34
2019-02-16T21:25:04.473Z,71.34
2019-02-16T21:27:37.328Z,70.89
2019-02-16T21:30:10.131Z,70.97
2019-02-16T21:32:40.330Z,70.97
2019-02-16T21:35:16.224Z,70.24
2019-02-16T21:37:58.180Z,71.52
2019-02-16T21:40:43.284Z,71.52
2019-02-16T21:43:13.506Z,70.35
2019-02-16T21:45:55.785Z,71.23
2019-02-16T21:48:31.711Z,70.76
2019-02-16T21:51:01.826Z,71.35
2019-02-16T21:53:31.948Z,72.23
2019-02-16T21:56:02.137Z,72.23
2019-02-16T21:58:47.452Z,72.10
2019-02-16T22:01:20.118Z,72.38
2019-02-16T22:03:50.315Z,72.38
2019-02-16T22:06:23.104Z,72.49
2019-02-16T22:08:59.195Z,72.95
2019-02-16T22:11:35.000Z,72.97
2019-02-16T22:14:03.560Z,73.59
2019-02-16T22:16:32.108Z,73.52
2019-02-16T22:19:00.579Z,73.43
2019-02-16T22:21:38.440Z,73.40
2019-02-16T22:24:07.267Z,74.06
2019-02-16T22:26:36.137Z,73.76
2019-02-16T22:29:04.974Z,73.45
2019-02-16T22:31:33.809Z,73.51
2019-02-16T22:34:02.617Z,73.71
2019-02-16T22:36:31.449Z,72.73
2019-02-16T22:39:00.317Z,73.03
2019-02-16T22:41:29.190Z,73.12
2019-02-16T22:43:58.036Z,73.15
2019-02-16T22:46:26.852Z,73.75
2019-02-16T22:48:55.711Z,73.05
2019-02-16T22:51:24.519Z,73.13
2019-02-16T22:53:53.327Z,73.82
2019-02-16T22:56:22.112Z,73.90
2019-02-16T22:58:50.935Z,73.81
2019-02-16T23:01:20.617Z,74.03
2019-02-16T23:03:49.372Z,74.27
2019-02-16T23:06:18.081Z,74.90
2019-02-16T23:08:46.776Z,74.82
2019-02-16T23:11:15.461Z,74.64
2019-02-16T23:13:44.196Z,74.96
2019-02-16T23:16:12.737Z,74.82
2019-02-16T23:18:41.288Z,74.45
2019-02-16T23:21:09.832Z,75.00
2019-02-16T23:23:38.233Z,74.97
2019-02-16T23:26:06.717Z,75.33
2019-02-16T23:28:38.988Z,74.86
2019-02-16T23:31:05.520Z,74.72
2019-02-16T23:33:34.070Z,74.82
2019-02-16T23:36:02.488Z,74.92
2019-02-16T23:38:30.964Z,74.52
2019-02-16T23:40:59.440Z,74.48
2019-02-16T23:43:28.005Z,74.58
2019-02-16T23:45:56.478Z,74.69
2019-02-16T23:48:25.036Z,74.79
2019-02-16T23:50:53.601Z,74.88
2019-02-16T23:53:22.137Z,75.09
2019-02-16T23:55:50.611Z,74.80
2019-02-16T23:58:19.142Z,74.42
